sensor_id;sensor_type;location;lat;lon;timestamp;P1;durP1;ratioP1;P2;durP2;ratioP2
35434;SDS011;21556;55.782;37.528;2023-05-07T00:00:59;4.20;;;3.00;;
35434;SDS011;21556;55.782;37.528;2023-05-07T00:03:25;6.13;;;2.58;;
35434;SDS011;21556;55.782;37.528;2023-05-07T00:05:51;3.63;;;2.80;;
35434;SDS011;21556;55.782;37.528;2023-05-07T00:08:18;5.00;;;2.92;;
35434;SDS011;21556;55.782;37.528;2023-05-07T00:10:44;6.57;;;3.22;;
35434;SDS011;21556;55.782;37.528;2023-05-07T00:13:11;6.30;;;3.22;;
35434;SDS011;21556;55.782;37.528;2023-05-07T00:15:37;3.78;;;2.85;;
35434;SDS011;21556;55.782;37.528;2023-05-07T00:18:03;2.88;;;2.38;;
35434;SDS011;21556;55.782;37.528;2023-05-07T00:20:29;4.15;;;3.20;;
35434;SDS011;21556;55.782;37.528;2023-05-07T00:22:55;4.40;;;2.88;;
35434;SDS011;21556;55.782;37.528;2023-05-07T00:25:21;4.07;;;3.45;;
35434;SDS011;21556;55.782;37.528;2023-05-07T00:27:47;5.88;;;4.07;;
35434;SDS011;21556;55.782;37.528;2023-05-07T00:30:13;4.93;;;3.20;;
35434;SDS011;21556;55.782;37.528;2023-05-07T00:32:40;4.40;;;3.17;;
35434;SDS011;21556;55.782;37.528;2023-05-07T00:35:06;4.45;;;3.50;;
35434;SDS011;21556;55.782;37.528;2023-05-07T00:37:32;3.92;;;3.20;;
35434;SDS011;21556;55.782;37.528;2023-05-07T00:39:58;5.15;;;3.40;;
35434;SDS011;21556;55.782;37.528;2023-05-07T00:42:24;5.70;;;4.07;;
35434;SDS011;21556;55.782;37.528;2023-05-07T00:44:51;4.72;;;2.90;;
35434;SDS011;21556;55.782;37.528;2023-05-07T00:47:16;4.40;;;2.80;;
35434;SDS011;21556;55.782;37.528;2023-05-07T00:49:43;4.43;;;3.07;;
35434;SDS011;21556;55.782;37.528;2023-05-07T00:52:15;4.78;;;3.83;;
35434;SDS011;21556;55.782;37.528;2023-05-07T00:54:42;4.90;;;3.53;;
35434;SDS011;21556;55.782;37.528;2023-05-07T00:57:09;6.60;;;3.27;;
35434;SDS011;21556;55.782;37.528;2023-05-07T00:59:36;5.55;;;3.38;;
35434;SDS011;21556;55.782;37.528;2023-05-07T01:02:03;5.22;;;3.38;;
35434;SDS011;21556;55.782;37.528;2023-05-07T01:04:29;5.15;;;3.65;;
35434;SDS011;21556;55.782;37.528;2023-05-07T01:06:55;5.43;;;2.93;;
35434;SDS011;21556;55.782;37.528;2023-05-07T01:09:24;3.55;;;2.92;;
35434;SDS011;21556;55.782;37.528;2023-05-07T01:11:51;5.50;;;3.47;;
35434;SDS011;21556;55.782;37.528;2023-05-07T01:14:19;4.10;;;2.83;;
35434;SDS011;21556;55.782;37.528;2023-05-07T01:16:47;5.87;;;3.00;;
35434;SDS011;21556;55.782;37.528;2023-05-07T01:19:15;6.68;;;3.65;;
35434;SDS011;21556;55.782;37.528;2023-05-07T01:21:46;4.82;;;3.35;;
35434;SDS011;21556;55.782;37.528;2023-05-07T01:24:15;4.47;;;3.30;;
35434;SDS011;21556;55.782;37.528;2023-05-07T01:26:43;4.05;;;3.28;;
35434;SDS011;21556;55.782;37.528;2023-05-07T01:29:13;3.50;;;3.00;;
35434;SDS011;21556;55.782;37.528;2023-05-07T01:31:40;5.40;;;3.22;;
35434;SDS011;21556;55.782;37.528;2023-05-07T01:34:08;4.57;;;3.17;;
35434;SDS011;21556;55.782;37.528;2023-05-07T01:36:38;4.47;;;3.28;;
35434;SDS011;21556;55.782;37.528;2023-05-07T01:39:05;4.78;;;4.28;;
35434;SDS011;21556;55.782;37.528;2023-05-07T01:41:32;7.15;;;4.22;;
35434;SDS011;21556;55.782;37.528;2023-05-07T01:43:58;8.27;;;4.10;;
35434;SDS011;21556;55.782;37.528;2023-05-07T01:46:25;7.40;;;3.93;;
35434;SDS011;21556;55.782;37.528;2023-05-07T01:48:52;4.93;;;3.85;;
35434;SDS011;21556;55.782;37.528;2023-05-07T01:51:18;5.20;;;3.10;;
35434;SDS011;21556;55.782;37.528;2023-05-07T01:53:45;3.40;;;2.60;;
35434;SDS011;21556;55.782;37.528;2023-05-07T01:56:17;5.63;;;3.53;;
35434;SDS011;21556;55.782;37.528;2023-05-07T01:58:44;4.03;;;3.13;;
35434;SDS011;21556;55.782;37.528;2023-05-07T02:01:12;6.78;;;4.05;;
35434;SDS011;21556;55.782;37.528;2023-05-07T02:03:39;2.95;;;2.20;;
35434;SDS011;21556;55.782;37.528;2023-05-07T02:06:12;5.97;;;3.42;;
35434;SDS011;21556;55.782;37.528;2023-05-07T02:08:39;4.23;;;3.40;;
35434;SDS011;21556;55.782;37.528;2023-05-07T02:11:05;6.40;;;4.13;;
35434;SDS011;21556;55.782;37.528;2023-05-07T02:13:36;4.53;;;4.00;;
35434;SDS011;21556;55.782;37.528;2023-05-07T02:16:04;6.20;;;4.60;;
35434;SDS011;21556;55.782;37.528;2023-05-07T02:18:31;6.10;;;4.37;;
35434;SDS011;21556;55.782;37.528;2023-05-07T02:20:58;7.32;;;5.25;;
35434;SDS011;21556;55.782;37.528;2023-05-07T02:23:24;10.37;;;5.07;;
35434;SDS011;21556;55.782;37.528;2023-05-07T02:25:50;6.03;;;4.82;;
35434;SDS011;21556;55.782;37.528;2023-05-07T02:28:17;8.00;;;5.10;;
35434;SDS011;21556;55.782;37.528;2023-05-07T02:30:53;6.20;;;5.10;;
35434;SDS011;21556;55.782;37.528;2023-05-07T02:33:19;6.45;;;5.22;;
35434;SDS011;21556;55.782;37.528;2023-05-07T02:35:46;7.47;;;5.77;;
35434;SDS011;21556;55.782;37.528;2023-05-07T02:38:14;8.20;;;4.90;;
35434;SDS011;21556;55.782;37.528;2023-05-07T02:40:40;7.63;;;5.43;;
35434;SDS011;21556;55.782;37.528;2023-05-07T02:43:07;6.60;;;5.20;;
35434;SDS011;21556;55.782;37.528;2023-05-07T02:45:34;6.80;;;6.07;;
35434;SDS011;21556;55.782;37.528;2023-05-07T02:48:01;9.43;;;5.28;;
35434;SDS011;21556;55.782;37.528;2023-05-07T02:50:27;8.40;;;5.57;;
35434;SDS011;21556;55.782;37.528;2023-05-07T02:52:55;4.53;;;3.63;;
35434;SDS011;21556;55.782;37.528;2023-05-07T02:55:21;6.27;;;5.13;;
35434;SDS011;21556;55.782;37.528;2023-05-07T02:57:47;8.23;;;6.20;;
35434;SDS011;21556;55.782;37.528;2023-05-07T03:00:14;5.30;;;4.43;;
35434;SDS011;21556;55.782;37.528;2023-05-07T03:02:51;5.07;;;4.57;;
35434;SDS011;21556;55.782;37.528;2023-05-07T03:05:17;6.37;;;4.60;;
35434;SDS011;21556;55.782;37.528;2023-05-07T03:07:43;6.93;;;4.23;;
35434;SDS011;21556;55.782;37.528;2023-05-07T03:10:12;9.63;;;4.43;;
35434;SDS011;21556;55.782;37.528;2023-05-07T03:12:37;7.07;;;4.60;;
35434;SDS011;21556;55.782;37.528;2023-05-07T03:15:06;5.35;;;4.13;;
35434;SDS011;21556;55.782;37.528;2023-05-07T03:19:58;4.93;;;3.77;;
35434;SDS011;21556;55.782;37.528;2023-05-07T03:22:24;3.90;;;3.20;;
35434;SDS011;21556;55.782;37.528;2023-05-07T03:24:50;7.63;;;3.67;;
35434;SDS011;21556;55.782;37.528;2023-05-07T03:27:16;4.80;;;3.27;;
35434;SDS011;21556;55.782;37.528;2023-05-07T03:29:42;4.78;;;3.58;;
35434;SDS011;21556;55.782;37.528;2023-05-07T03:32:08;4.15;;;3.42;;
35434;SDS011;21556;55.782;37.528;2023-05-07T03:34:35;5.20;;;3.75;;
35434;SDS011;21556;55.782;37.528;2023-05-07T03:37:01;6.67;;;4.40;;
35434;SDS011;21556;55.782;37.528;2023-05-07T03:39:28;5.47;;;3.53;;
35434;SDS011;21556;55.782;37.528;2023-05-07T03:41:55;6.63;;;3.70;;
35434;SDS011;21556;55.782;37.528;2023-05-07T03:44:21;5.70;;;3.03;;
35434;SDS011;21556;55.782;37.528;2023-05-07T03:46:49;4.07;;;3.28;;
35434;SDS011;21556;55.782;37.528;2023-05-07T03:49:15;4.63;;;2.80;;
35434;SDS011;21556;55.782;37.528;2023-05-07T03:51:41;3.73;;;2.90;;
35434;SDS011;21556;55.782;37.528;2023-05-07T03:54:07;4.53;;;3.92;;
35434;SDS011;21556;55.782;37.528;2023-05-07T03:56:33;4.93;;;2.97;;
35434;SDS011;21556;55.782;37.528;2023-05-07T03:59:00;3.72;;;3.00;;
35434;SDS011;21556;55.782;37.528;2023-05-07T04:01:26;3.90;;;2.97;;
35434;SDS011;21556;55.782;37.528;2023-05-07T04:03:53;4.55;;;2.65;;
35434;SDS011;21556;55.782;37.528;2023-05-07T04:06:19;4.15;;;3.30;;
35434;SDS011;21556;55.782;37.528;2023-05-07T04:08:48;4.15;;;3.20;;
35434;SDS011;21556;55.782;37.528;2023-05-07T04:11:13;4.78;;;3.13;;
35434;SDS011;21556;55.782;37.528;2023-05-07T04:13:39;3.90;;;2.97;;
35434;SDS011;21556;55.782;37.528;2023-05-07T04:16:07;6.05;;;2.95;;
35434;SDS011;21556;55.782;37.528;2023-05-07T04:18:35;5.82;;;3.42;;
35434;SDS011;21556;55.782;37.528;2023-05-07T04:21:01;4.90;;;2.70;;
35434;SDS011;21556;55.782;37.528;2023-05-07T04:23:27;5.22;;;2.60;;
35434;SDS011;21556;55.782;37.528;2023-05-07T04:25:56;5.88;;;4.35;;
35434;SDS011;21556;55.782;37.528;2023-05-07T04:28:33;5.28;;;3.03;;
35434;SDS011;21556;55.782;37.528;2023-05-07T04:31:00;3.38;;;2.97;;
35434;SDS011;21556;55.782;37.528;2023-05-07T04:33:26;4.55;;;2.92;;
35434;SDS011;21556;55.782;37.528;2023-05-07T04:35:56;8.35;;;4.57;;
35434;SDS011;21556;55.782;37.528;2023-05-07T04:38:22;17.02;;;3.92;;
35434;SDS011;21556;55.782;37.528;2023-05-07T04:40:51;3.75;;;2.63;;
35434;SDS011;21556;55.782;37.528;2023-05-07T04:43:21;3.75;;;2.75;;
35434;SDS011;21556;55.782;37.528;2023-05-07T04:45:50;4.05;;;3.05;;
35434;SDS011;21556;55.782;37.528;2023-05-07T04:48:17;4.60;;;2.88;;
35434;SDS011;21556;55.782;37.528;2023-05-07T04:50:49;5.10;;;3.10;;
35434;SDS011;21556;55.782;37.528;2023-05-07T04:53:17;3.88;;;3.05;;
35434;SDS011;21556;55.782;37.528;2023-05-07T04:55:43;3.97;;;2.72;;
35434;SDS011;21556;55.782;37.528;2023-05-07T04:58:11;4.95;;;2.35;;
35434;SDS011;21556;55.782;37.528;2023-05-07T05:00:38;2.70;;;2.10;;
35434;SDS011;21556;55.782;37.528;2023-05-07T05:03:06;5.60;;;1.80;;
35434;SDS011;21556;55.782;37.528;2023-05-07T05:05:33;2.88;;;2.20;;
35434;SDS011;21556;55.782;37.528;2023-05-07T05:08:00;2.88;;;1.85;;
35434;SDS011;21556;55.782;37.528;2023-05-07T05:10:26;5.65;;;1.88;;
35434;SDS011;21556;55.782;37.528;2023-05-07T05:12:52;2.70;;;2.03;;
35434;SDS011;21556;55.782;37.528;2023-05-07T05:15:20;2.55;;;1.80;;
35434;SDS011;21556;55.782;37.528;2023-05-07T05:17:46;2.78;;;1.70;;
35434;SDS011;21556;55.782;37.528;2023-05-07T05:20:12;2.20;;;1.60;;
35434;SDS011;21556;55.782;37.528;2023-05-07T05:22:40;2.15;;;1.70;;
35434;SDS011;21556;55.782;37.528;2023-05-07T05:25:07;3.92;;;2.38;;
35434;SDS011;21556;55.782;37.528;2023-05-07T05:27:34;2.92;;;1.95;;
35434;SDS011;21556;55.782;37.528;2023-05-07T05:30:02;1.98;;;1.73;;
35434;SDS011;21556;55.782;37.528;2023-05-07T05:32:31;3.63;;;1.90;;
35434;SDS011;21556;55.782;37.528;2023-05-07T05:34:57;2.60;;;1.50;;
35434;SDS011;21556;55.782;37.528;2023-05-07T05:37:24;1.92;;;1.73;;
35434;SDS011;21556;55.782;37.528;2023-05-07T05:39:51;3.72;;;1.58;;
35434;SDS011;21556;55.782;37.528;2023-05-07T05:42:21;2.92;;;1.60;;
35434;SDS011;21556;55.782;37.528;2023-05-07T05:44:49;3.97;;;2.72;;
35434;SDS011;21556;55.782;37.528;2023-05-07T05:47:15;6.78;;;3.25;;
35434;SDS011;21556;55.782;37.528;2023-05-07T05:49:42;2.60;;;1.80;;
35434;SDS011;21556;55.782;37.528;2023-05-07T05:52:11;2.60;;;1.40;;
35434;SDS011;21556;55.782;37.528;2023-05-07T05:54:38;1.55;;;1.40;;
35434;SDS011;21556;55.782;37.528;2023-05-07T05:57:05;1.80;;;1.40;;
35434;SDS011;21556;55.782;37.528;2023-05-07T05:59:35;2.42;;;1.60;;
35434;SDS011;21556;55.782;37.528;2023-05-07T06:02:01;2.10;;;1.58;;
35434;SDS011;21556;55.782;37.528;2023-05-07T06:04:30;3.03;;;1.63;;
35434;SDS011;21556;55.782;37.528;2023-05-07T06:06:57;3.03;;;1.63;;
35434;SDS011;21556;55.782;37.528;2023-05-07T06:09:24;2.17;;;1.60;;
35434;SDS011;21556;55.782;37.528;2023-05-07T06:11:50;3.15;;;1.48;;
35434;SDS011;21556;55.782;37.528;2023-05-07T06:14:17;3.25;;;1.58;;
35434;SDS011;21556;55.782;37.528;2023-05-07T06:16:45;2.33;;;1.08;;
35434;SDS011;21556;55.782;37.528;2023-05-07T06:19:11;2.25;;;1.58;;
35434;SDS011;21556;55.782;37.528;2023-05-07T06:21:39;4.10;;;1.55;;
35434;SDS011;21556;55.782;37.528;2023-05-07T06:24:06;2.03;;;1.15;;
35434;SDS011;21556;55.782;37.528;2023-05-07T06:26:34;2.72;;;1.40;;
35434;SDS011;21556;55.782;37.528;2023-05-07T06:29:01;1.70;;;1.23;;
35434;SDS011;21556;55.782;37.528;2023-05-07T06:31:30;2.90;;;1.40;;
35434;SDS011;21556;55.782;37.528;2023-05-07T06:34:03;2.50;;;1.25;;
35434;SDS011;21556;55.782;37.528;2023-05-07T06:36:36;1.90;;;1.50;;
35434;SDS011;21556;55.782;37.528;2023-05-07T06:39:10;2.78;;;1.52;;
35434;SDS011;21556;55.782;37.528;2023-05-07T06:41:40;2.33;;;1.65;;
35434;SDS011;21556;55.782;37.528;2023-05-07T06:44:16;4.50;;;1.38;;
35434;SDS011;21556;55.782;37.528;2023-05-07T06:46:46;3.33;;;1.83;;
35434;SDS011;21556;55.782;37.528;2023-05-07T06:49:13;2.95;;;1.33;;
35434;SDS011;21556;55.782;37.528;2023-05-07T06:51:44;2.15;;;1.20;;
35434;SDS011;21556;55.782;37.528;2023-05-07T06:54:12;2.05;;;1.30;;
35434;SDS011;21556;55.782;37.528;2023-05-07T06:56:40;4.35;;;2.00;;
35434;SDS011;21556;55.782;37.528;2023-05-07T06:59:08;3.00;;;1.67;;
35434;SDS011;21556;55.782;37.528;2023-05-07T07:01:39;2.47;;;1.20;;
35434;SDS011;21556;55.782;37.528;2023-05-07T07:04:08;1.48;;;1.17;;
35434;SDS011;21556;55.782;37.528;2023-05-07T07:06:35;2.28;;;1.33;;
35434;SDS011;21556;55.782;37.528;2023-05-07T07:09:05;0.95;;;0.82;;
35434;SDS011;21556;55.782;37.528;2023-05-07T07:11:31;1.30;;;0.98;;
35434;SDS011;21556;55.782;37.528;2023-05-07T07:13:58;1.30;;;0.80;;
35434;SDS011;21556;55.782;37.528;2023-05-07T07:16:24;1.17;;;0.93;;
35434;SDS011;21556;55.782;37.528;2023-05-07T07:18:51;1.35;;;1.10;;
35434;SDS011;21556;55.782;37.528;2023-05-07T07:21:17;4.47;;;1.17;;
35434;SDS011;21556;55.782;37.528;2023-05-07T07:23:44;5.78;;;1.40;;
35434;SDS011;21556;55.782;37.528;2023-05-07T07:26:13;1.70;;;1.60;;
35434;SDS011;21556;55.782;37.528;2023-05-07T07:28:43;3.67;;;1.35;;
35434;SDS011;21556;55.782;37.528;2023-05-07T07:31:10;2.77;;;1.10;;
35434;SDS011;21556;55.782;37.528;2023-05-07T07:33:37;2.28;;;0.82;;
35434;SDS011;21556;55.782;37.528;2023-05-07T07:36:04;1.85;;;1.08;;
35434;SDS011;21556;55.782;37.528;2023-05-07T07:38:33;1.20;;;0.98;;
35434;SDS011;21556;55.782;37.528;2023-05-07T07:41:00;1.30;;;1.00;;
35434;SDS011;21556;55.782;37.528;2023-05-07T07:43:28;1.58;;;1.20;;
35434;SDS011;21556;55.782;37.528;2023-05-07T07:45:54;4.07;;;2.35;;
35434;SDS011;21556;55.782;37.528;2023-05-07T07:48:21;2.35;;;1.00;;
35434;SDS011;21556;55.782;37.528;2023-05-07T07:50:48;1.80;;;0.88;;
35434;SDS011;21556;55.782;37.528;2023-05-07T07:53:17;3.85;;;1.15;;
35434;SDS011;21556;55.782;37.528;2023-05-07T07:55:44;4.03;;;1.00;;
35434;SDS011;21556;55.782;37.528;2023-05-07T07:58:13;1.60;;;0.95;;
35434;SDS011;21556;55.782;37.528;2023-05-07T08:00:41;1.93;;;0.97;;
35434;SDS011;21556;55.782;37.528;2023-05-07T08:03:11;2.10;;;0.98;;
35434;SDS011;21556;55.782;37.528;2023-05-07T08:05:41;1.55;;;0.88;;
35434;SDS011;21556;55.782;37.528;2023-05-07T08:08:07;1.77;;;0.90;;
35434;SDS011;21556;55.782;37.528;2023-05-07T08:10:35;1.20;;;0.88;;
35434;SDS011;21556;55.782;37.528;2023-05-07T08:13:09;2.35;;;0.80;;
35434;SDS011;21556;55.782;37.528;2023-05-07T08:15:39;1.50;;;1.05;;
35434;SDS011;21556;55.782;37.528;2023-05-07T08:18:05;1.30;;;1.02;;
35434;SDS011;21556;55.782;37.528;2023-05-07T08:20:32;1.98;;;1.15;;
35434;SDS011;21556;55.782;37.528;2023-05-07T08:23:01;1.10;;;0.90;;
35434;SDS011;21556;55.782;37.528;2023-05-07T08:25:28;1.95;;;0.90;;
35434;SDS011;21556;55.782;37.528;2023-05-07T08:27:55;2.67;;;1.20;;
35434;SDS011;21556;55.782;37.528;2023-05-07T08:30:21;2.67;;;0.90;;
35434;SDS011;21556;55.782;37.528;2023-05-07T08:32:47;4.20;;;0.98;;
35434;SDS011;21556;55.782;37.528;2023-05-07T08:35:13;1.80;;;0.80;;
35434;SDS011;21556;55.782;37.528;2023-05-07T08:37:39;3.35;;;1.00;;
35434;SDS011;21556;55.782;37.528;2023-05-07T08:40:05;2.00;;;0.90;;
35434;SDS011;21556;55.782;37.528;2023-05-07T08:42:37;1.00;;;0.80;;
35434;SDS011;21556;55.782;37.528;2023-05-07T08:45:08;2.45;;;1.40;;
35434;SDS011;21556;55.782;37.528;2023-05-07T08:47:46;2.35;;;1.17;;
35434;SDS011;21556;55.782;37.528;2023-05-07T08:50:19;2.83;;;1.00;;
35434;SDS011;21556;55.782;37.528;2023-05-07T08:52:47;2.58;;;0.82;;
35434;SDS011;21556;55.782;37.528;2023-05-07T08:55:13;3.10;;;1.00;;
35434;SDS011;21556;55.782;37.528;2023-05-07T08:57:41;2.27;;;0.87;;
35434;SDS011;21556;55.782;37.528;2023-05-07T09:00:10;2.67;;;1.25;;
35434;SDS011;21556;55.782;37.528;2023-05-07T09:02:38;5.68;;;1.48;;
35434;SDS011;21556;55.782;37.528;2023-05-07T09:05:05;1.67;;;1.00;;
35434;SDS011;21556;55.782;37.528;2023-05-07T09:07:33;2.13;;;0.95;;
35434;SDS011;21556;55.782;37.528;2023-05-07T09:10:03;2.22;;;0.80;;
35434;SDS011;21556;55.782;37.528;2023-05-07T09:12:31;1.73;;;0.82;;
35434;SDS011;21556;55.782;37.528;2023-05-07T09:14:58;2.22;;;0.80;;
35434;SDS011;21556;55.782;37.528;2023-05-07T09:17:31;1.23;;;0.77;;
35434;SDS011;21556;55.782;37.528;2023-05-07T09:20:04;3.15;;;1.00;;
35434;SDS011;21556;55.782;37.528;2023-05-07T09:22:33;2.65;;;0.90;;
35434;SDS011;21556;55.782;37.528;2023-05-07T09:25:06;1.65;;;1.10;;
35434;SDS011;21556;55.782;37.528;2023-05-07T09:27:35;1.27;;;0.80;;
35434;SDS011;21556;55.782;37.528;2023-05-07T09:32:34;1.10;;;0.85;;
35434;SDS011;21556;55.782;37.528;2023-05-07T09:35:02;3.05;;;0.93;;
35434;SDS011;21556;55.782;37.528;2023-05-07T09:37:31;1.50;;;1.20;;
35434;SDS011;21556;55.782;37.528;2023-05-07T09:39:58;3.13;;;1.10;;
35434;SDS011;21556;55.782;37.528;2023-05-07T09:42:26;4.13;;;1.00;;
35434;SDS011;21556;55.782;37.528;2023-05-07T09:44:56;2.30;;;1.00;;
35434;SDS011;21556;55.782;37.528;2023-05-07T09:47:26;2.65;;;1.00;;
35434;SDS011;21556;55.782;37.528;2023-05-07T09:49:57;3.60;;;0.82;;
35434;SDS011;21556;55.782;37.528;2023-05-07T09:52:30;3.80;;;1.02;;
35434;SDS011;21556;55.782;37.528;2023-05-07T09:55:01;1.08;;;0.98;;
35434;SDS011;21556;55.782;37.528;2023-05-07T09:57:31;1.25;;;0.73;;
35434;SDS011;21556;55.782;37.528;2023-05-07T10:00:02;2.35;;;1.00;;
35434;SDS011;21556;55.782;37.528;2023-05-07T10:02:47;1.35;;;1.05;;
35434;SDS011;21556;55.782;37.528;2023-05-07T10:05:19;1.20;;;0.80;;
35434;SDS011;21556;55.782;37.528;2023-05-07T10:10:15;1.67;;;0.82;;
35434;SDS011;21556;55.782;37.528;2023-05-07T10:12:46;1.70;;;1.00;;
35434;SDS011;21556;55.782;37.528;2023-05-07T10:15:19;1.77;;;1.08;;
35434;SDS011;21556;55.782;37.528;2023-05-07T10:17:49;1.58;;;0.90;;
35434;SDS011;21556;55.782;37.528;2023-05-07T10:20:17;3.63;;;0.80;;
35434;SDS011;21556;55.782;37.528;2023-05-07T10:22:45;1.33;;;0.70;;
35434;SDS011;21556;55.782;37.528;2023-05-07T10:25:18;1.90;;;0.90;;
35434;SDS011;21556;55.782;37.528;2023-05-07T10:27:51;3.60;;;0.90;;
35434;SDS011;21556;55.782;37.528;2023-05-07T10:33:02;4.10;;;1.10;;
35434;SDS011;21556;55.782;37.528;2023-05-07T10:35:37;1.00;;;0.80;;
35434;SDS011;21556;55.782;37.528;2023-05-07T10:38:07;2.45;;;0.93;;
35434;SDS011;21556;55.782;37.528;2023-05-07T10:40:36;1.83;;;0.93;;
35434;SDS011;21556;55.782;37.528;2023-05-07T10:43:06;2.10;;;1.33;;
35434;SDS011;21556;55.782;37.528;2023-05-07T10:45:43;1.50;;;1.15;;
35434;SDS011;21556;55.782;37.528;2023-05-07T10:48:14;1.52;;;0.85;;
35434;SDS011;21556;55.782;37.528;2023-05-07T10:50:46;2.40;;;0.90;;
35434;SDS011;21556;55.782;37.528;2023-05-07T10:58:48;4.55;;;1.00;;
35434;SDS011;21556;55.782;37.528;2023-05-07T11:02:10;2.63;;;0.98;;
35434;SDS011;21556;55.782;37.528;2023-05-07T11:04:22;2.00;;;1.35;;
35434;SDS011;21556;55.782;37.528;2023-05-07T11:15:03;3.15;;;1.35;;
35434;SDS011;21556;55.782;37.528;2023-05-07T11:17:34;3.30;;;1.17;;
35434;SDS011;21556;55.782;37.528;2023-05-07T11:20:17;1.83;;;1.05;;
35434;SDS011;21556;55.782;37.528;2023-05-07T11:22:49;1.67;;;0.88;;
35434;SDS011;21556;55.782;37.528;2023-05-07T11:25:39;1.50;;;0.90;;
35434;SDS011;21556;55.782;37.528;2023-05-07T11:28:11;12.82;;;1.95;;
35434;SDS011;21556;55.782;37.528;2023-05-07T11:30:44;2.47;;;1.05;;
35434;SDS011;21556;55.782;37.528;2023-05-07T11:33:16;4.18;;;1.15;;
35434;SDS011;21556;55.782;37.528;2023-05-07T11:35:43;1.50;;;1.02;;
35434;SDS011;21556;55.782;37.528;2023-05-07T11:38:12;5.00;;;1.25;;
35434;SDS011;21556;55.782;37.528;2023-05-07T11:40:49;3.40;;;1.25;;
35434;SDS011;21556;55.782;37.528;2023-05-07T11:43:16;3.13;;;1.08;;
35434;SDS011;21556;55.782;37.528;2023-05-07T11:45:44;2.15;;;1.00;;
35434;SDS011;21556;55.782;37.528;2023-05-07T11:53:44;1.73;;;1.00;;
35434;SDS011;21556;55.782;37.528;2023-05-07T11:56:11;1.80;;;1.17;;
35434;SDS011;21556;55.782;37.528;2023-05-07T11:58:40;2.47;;;1.10;;
35434;SDS011;21556;55.782;37.528;2023-05-07T12:03:41;2.45;;;1.00;;
35434;SDS011;21556;55.782;37.528;2023-05-07T12:06:08;1.67;;;1.10;;
35434;SDS011;21556;55.782;37.528;2023-05-07T12:08:40;2.05;;;1.23;;
35434;SDS011;21556;55.782;37.528;2023-05-07T12:11:22;1.83;;;1.33;;
35434;SDS011;21556;55.782;37.528;2023-05-07T12:13:49;2.95;;;1.10;;
35434;SDS011;21556;55.782;37.528;2023-05-07T12:16:15;6.78;;;1.33;;
35434;SDS011;21556;55.782;37.528;2023-05-07T12:18:41;1.15;;;0.80;;
35434;SDS011;21556;55.782;37.528;2023-05-07T12:21:12;4.03;;;0.80;;
35434;SDS011;21556;55.782;37.528;2023-05-07T12:23:40;3.55;;;1.25;;
35434;SDS011;21556;55.782;37.528;2023-05-07T12:26:06;1.95;;;0.80;;
35434;SDS011;21556;55.782;37.528;2023-05-07T12:28:36;3.28;;;0.82;;
35434;SDS011;21556;55.782;37.528;2023-05-07T12:31:03;1.75;;;0.90;;
35434;SDS011;21556;55.782;37.528;2023-05-07T12:33:31;3.38;;;1.10;;
35434;SDS011;21556;55.782;37.528;2023-05-07T12:36:02;1.73;;;1.20;;
35434;SDS011;21556;55.782;37.528;2023-05-07T12:38:34;2.88;;;1.10;;
35434;SDS011;21556;55.782;37.528;2023-05-07T12:41:02;2.38;;;1.30;;
35434;SDS011;21556;55.782;37.528;2023-05-07T12:43:29;2.67;;;1.25;;
35434;SDS011;21556;55.782;37.528;2023-05-07T12:45:56;2.30;;;1.30;;
35434;SDS011;21556;55.782;37.528;2023-05-07T12:48:24;2.42;;;1.00;;
35434;SDS011;21556;55.782;37.528;2023-05-07T12:50:52;5.20;;;1.33;;
35434;SDS011;21556;55.782;37.528;2023-05-07T12:53:20;2.90;;;1.63;;
35434;SDS011;21556;55.782;37.528;2023-05-07T12:55:48;6.25;;;1.33;;
35434;SDS011;21556;55.782;37.528;2023-05-07T13:00:58;1.20;;;0.93;;
35434;SDS011;21556;55.782;37.528;2023-05-07T13:05:54;2.33;;;0.93;;
35434;SDS011;21556;55.782;37.528;2023-05-07T13:08:38;2.47;;;1.10;;
35434;SDS011;21556;55.782;37.528;2023-05-07T13:11:10;3.38;;;1.50;;
35434;SDS011;21556;55.782;37.528;2023-05-07T13:13:38;5.25;;;3.40;;
35434;SDS011;21556;55.782;37.528;2023-05-07T13:16:09;2.42;;;1.30;;
35434;SDS011;21556;55.782;37.528;2023-05-07T13:18:36;2.50;;;1.20;;
35434;SDS011;21556;55.782;37.528;2023-05-07T13:21:04;2.57;;;1.20;;
35434;SDS011;21556;55.782;37.528;2023-05-07T13:23:30;3.08;;;1.80;;
35434;SDS011;21556;55.782;37.528;2023-05-07T13:25:56;2.45;;;1.33;;
35434;SDS011;21556;55.782;37.528;2023-05-07T13:28:23;11.77;;;2.15;;
35434;SDS011;21556;55.782;37.528;2023-05-07T13:30:52;3.23;;;2.00;;
35434;SDS011;21556;55.782;37.528;2023-05-07T13:33:20;4.75;;;2.22;;
35434;SDS011;21556;55.782;37.528;2023-05-07T13:35:46;4.18;;;1.58;;
35434;SDS011;21556;55.782;37.528;2023-05-07T13:38:12;5.35;;;2.05;;
35434;SDS011;21556;55.782;37.528;2023-05-07T13:40:41;3.83;;;1.52;;
35434;SDS011;21556;55.782;37.528;2023-05-07T13:43:09;2.75;;;1.00;;
35434;SDS011;21556;55.782;37.528;2023-05-07T13:45:39;8.27;;;1.48;;
35434;SDS011;21556;55.782;37.528;2023-05-07T13:48:05;2.95;;;1.42;;
35434;SDS011;21556;55.782;37.528;2023-05-07T13:50:31;2.25;;;1.42;;
35434;SDS011;21556;55.782;37.528;2023-05-07T13:52:58;2.22;;;1.25;;
35434;SDS011;21556;55.782;37.528;2023-05-07T13:55:24;1.52;;;1.10;;
35434;SDS011;21556;55.782;37.528;2023-05-07T13:57:57;1.83;;;1.38;;
35434;SDS011;21556;55.782;37.528;2023-05-07T14:00:26;2.15;;;1.15;;
35434;SDS011;21556;55.782;37.528;2023-05-07T14:02:53;3.25;;;1.40;;
35434;SDS011;21556;55.782;37.528;2023-05-07T14:05:22;1.42;;;1.33;;
35434;SDS011;21556;55.782;37.528;2023-05-07T14:07:54;2.83;;;1.00;;
35434;SDS011;21556;55.782;37.528;2023-05-07T14:12:49;2.65;;;1.50;;
35434;SDS011;21556;55.782;37.528;2023-05-07T14:15:15;3.13;;;1.27;;
35434;SDS011;21556;55.782;37.528;2023-05-07T14:17:42;2.85;;;1.13;;
35434;SDS011;21556;55.782;37.528;2023-05-07T14:20:14;3.53;;;1.10;;
35434;SDS011;21556;55.782;37.528;2023-05-07T14:22:41;2.40;;;1.30;;
35434;SDS011;21556;55.782;37.528;2023-05-07T14:25:08;1.30;;;1.17;;
35434;SDS011;21556;55.782;37.528;2023-05-07T14:27:35;1.88;;;1.10;;
35434;SDS011;21556;55.782;37.528;2023-05-07T14:30:02;2.35;;;1.27;;
35434;SDS011;21556;55.782;37.528;2023-05-07T14:32:35;1.52;;;1.30;;
35434;SDS011;21556;55.782;37.528;2023-05-07T14:35:02;2.40;;;1.23;;
35434;SDS011;21556;55.782;37.528;2023-05-07T14:37:31;2.33;;;1.45;;
35434;SDS011;21556;55.782;37.528;2023-05-07T14:39:58;3.97;;;1.10;;
35434;SDS011;21556;55.782;37.528;2023-05-07T14:42:24;3.58;;;1.30;;
35434;SDS011;21556;55.782;37.528;2023-05-07T14:44:51;3.13;;;1.33;;
35434;SDS011;21556;55.782;37.528;2023-05-07T14:47:18;1.60;;;1.00;;
35434;SDS011;21556;55.782;37.528;2023-05-07T14:49:47;2.42;;;1.13;;
35434;SDS011;21556;55.782;37.528;2023-05-07T14:52:14;3.07;;;1.33;;
35434;SDS011;21556;55.782;37.528;2023-05-07T14:54:40;2.97;;;1.40;;
35434;SDS011;21556;55.782;37.528;2023-05-07T14:57:08;1.40;;;1.17;;
35434;SDS011;21556;55.782;37.528;2023-05-07T14:59:42;2.20;;;1.20;;
35434;SDS011;21556;55.782;37.528;2023-05-07T15:02:09;3.42;;;1.67;;
35434;SDS011;21556;55.782;37.528;2023-05-07T15:07:05;2.20;;;1.13;;
35434;SDS011;21556;55.782;37.528;2023-05-07T15:09:31;3.00;;;1.30;;
35434;SDS011;21556;55.782;37.528;2023-05-07T15:11:57;3.92;;;1.60;;
35434;SDS011;21556;55.782;37.528;2023-05-07T15:14:23;2.17;;;1.20;;
35434;SDS011;21556;55.782;37.528;2023-05-07T15:16:49;3.28;;;1.00;;
35434;SDS011;21556;55.782;37.528;2023-05-07T15:19:15;4.38;;;1.88;;
35434;SDS011;21556;55.782;37.528;2023-05-07T15:21:42;2.20;;;1.20;;